CYAH 040749Z AUTO 23007KT 5SM HZ CLR M37/M41 A2996 RMK SLP204
From batch tds/metars/production/2023/2/4/h07_m56_metars.cache.csv.gz
Observed at (about 2 hours ago)
Identifier CYAH
CYAH 040700Z AUTO 26008KT 9SM CLR M36/M40 A2995 RMK SLP197
From batch tds/metars/production/2023/2/4/h07_m19_metars.cache.csv.gz
Observed at (about 3 hours ago)
Identifier CYAH
CYAH 040606Z AUTO 26007KT 9SM CLR M36/M40 A2994 RMK SLP196
From batch tds/metars/production/2023/2/4/h06_m24_metars.cache.csv.gz
Observed at (about 4 hours ago)
Identifier CYAH
CYAH 040500Z AUTO 26008KT 9SM CLR M35/M39 A2992 RMK SLP187
From batch tds/metars/production/2023/2/4/h05_m24_metars.cache.csv.gz
Observed at (about 5 hours ago)
Identifier CYAH
CYAH 040400Z AUTO 27007KT 9SM CLR M35/M39 A2991 RMK SLP183
From batch tds/metars/production/2023/2/4/h04_m25_metars.cache.csv.gz
Observed at (about 6 hours ago)
Identifier CYAH
CYAH 040300Z AUTO 29008G15KT 9SM CLR M34/M38 A2990 RMK SLP180
From batch tds/metars/production/2023/2/4/h03_m27_metars.cache.csv.gz
Observed at (about 7 hours ago)
Identifier CYAH
CYAH 040238Z AUTO 28009KT 9SM SCT013 M34/M38 A2990 RMK SLP178
From batch tds/metars/production/2023/2/4/h02_m59_metars.cache.csv.gz
Observed at (about 7 hours ago)
Identifier CYAH
CYAH 040100Z AUTO 29010G16KT 9SM CLR M33/M38 A2987 RMK SLP170
From batch tds/metars/production/2023/2/4/h01_m29_metars.cache.csv.gz
Observed at (about 9 hours ago)
Identifier CYAH
CYAH 040000Z AUTO 29008G15KT 9SM CLR M33/M37 A2986 RMK SLP166
From batch tds/metars/production/2023/2/4/h00_m25_metars.cache.csv.gz
Observed at (about 10 hours ago)
Identifier CYAH
CYAH 032300Z AUTO 29011G18KT 9SM CLR M32/M37 A2983 RMK SLP156
From batch tds/metars/production/2023/2/3/h23_m27_metars.cache.csv.gz
Observed at (about 11 hours ago)
Identifier CYAH
talk